Enfield, Illinois
Current Conditions -  °F | °C
As of 3:35 AM on Wednesday 22 Oct 2014 (Local Time) from KCUL Reporting Station
Clear Clear  
Wind Chill: 40°   Ceiling: Unl
Heat Index: 44°   Visibility: 10mi
Dew Point: 43°   Wind: 6mph
Humidity: 98%   Direction: 360°N
Pressure: 30.22"   Gusts: NA
Location:  38.1°N, 88.34°W
Report Text: KCUL 220835Z AUTO 36005KT 10SM CLR 07/06 A3022 RMK AO2 T00650062
Loading
Personal Weather Stations






























Interactive Weather Map
Tropical Storm Tracking
New forecast layout! Learn more

10-Day Weather Forecast

Advertisements
Track Severe Weather on mobile